Date,TemperatureHighF,TemperatureAvgF,TemperatureLowF,DewpointHighF,DewpointAvgF,DewpointLowF,HumidityHigh,HumidityAvg,HumidityLow,PressureMaxIn,PressureMinIn,WindSpeedMaxMPH,WindSpeedAvgMPH,GustSpeedMaxMPH,PrecipitationSumIn
2012-1-1,40.9,36.9,34.1,38.0,35.3,33.3,97,94,86,30.00,29.53,19,3,19,0.18
2012-1-2,39.6,29.2,18.9,38.4,23.0,10.0,96,78,62,29.64,29.49,28,4,28,0.06
2012-1-3,18.9,8.1,-1.8,10.1,1.9,-6.7,88,76,65,29.97,29.63,18,4,18,0.00
2012-1-4,14.0,5.4,-3.4,10.2,-0.7,-6.8,86,76,64,30.03,29.79,13,2,13,0.00
2012-1-5,23.2,16.9,6.5,20.9,14.0,4.2,92,88,78,29.83,29.68,15,1,15,0.00
2012-1-6,38.7,24.8,8.0,31.1,21.5,5.7,96,88,73,29.81,29.66,10,1,10,0.01
2012-1-7,42.1,35.2,26.9,37.0,30.2,25.7,96,83,69,29.85,29.64,19,2,19,0.01
2012-1-8,35.5,25.6,11.3,27.7,19.6,9.2,91,78,68,30.20,29.85,19,3,19,0.00
2012-1-9,31.8,20.2,9.3,21.5,15.2,7.2,93,81,62,30.21,29.85,11,1,11,0.00
2012-1-10,33.7,29.6,22.9,27.5,23.0,15.2,86,76,62,29.91,29.72,15,3,15,0.00
2012-1-11,31.4,23.7,12.4,23.7,18.8,10.3,93,82,71,30.04,29.90,23,2,23,0.00
2012-1-12,29.1,27.2,25.6,26.9,24.7,22.4,94,90,85,29.95,29.49,36,9,36,0.00
2012-1-13,32.2,26.4,17.9,30.7,24.2,16.0,96,92,81,29.49,29.11,26,5,26,0.00
2012-1-14,23.4,11.7,-2.3,20.0,7.4,-5.5,90,83,70,29.95,29.46,20,4,20,0.00
2012-1-15,2.8,-4.2,-11.5,-5.3,-8.8,-15.1,88,80,67,30.39,29.94,19,3,19,0.00
2012-1-16,21.4,6.9,-12.5,17.2,-0.1,-16.2,89,74,48,30.42,29.98,12,2,12,0.00
2012-1-17,46.7,30.7,19.8,41.4,28.9,17.1,96,93,82,29.98,29.34,30,2,30,0.26
2012-1-18,46.3,19.9,2.2,41.1,11.5,-2.0,92,70,59,30.07,29.35,39,6,39,0.01
2012-1-19,19.9,9.7,-5.5,16.6,2.7,-8.8,90,75,46,30.12,29.84,22,4,22,0.00
2012-1-20,21.5,14.1,2.5,18.8,5.5,-3.2,91,69,46,30.17,29.82,24,4,24,0.00
2012-1-21,14.7,7.0,-3.7,9.9,2.2,-6.9,90,80,62,30.23,30.03,10,0,10,0.00
2012-1-22,23.4,10.9,-4.5,16.0,3.3,-7.9,87,73,48,30.41,30.23,14,2,14,0.00
2012-1-23,41.9,30.0,20.0,40.5,27.5,15.9,96,90,84,30.34,29.79,24,6,24,0.36
2012-1-24,43.4,36.7,28.5,41.0,33.2,24.9,97,87,79,29.99,29.77,16,2,16,0.00
2012-1-25,28.5,26.7,24.6,25.6,22.4,21.1,91,84,78,30.16,29.99,17,4,17,0.00
2012-1-26,34.7,26.9,20.0,25.9,21.9,17.3,93,82,50,30.15,29.85,19,3,19,0.00
2012-1-27,38.1,32.5,27.1,37.2,30.7,25.1,97,93,87,29.85,29.29,26,5,26,0.33
2012-1-28,36.1,31.6,28.8,29.0,25.8,20.8,92,79,69,29.92,29.65,20,4,20,0.00
2012-1-29,31.7,27.3,22.8,21.8,17.6,13.3,84,67,55,29.96,29.79,28,3,28,0.00
2012-1-30,29.8,21.3,11.8,24.8,14.7,8.6,93,76,58,30.16,29.85,24,4,24,0.00
2012-1-31,40.6,27.6,13.6,30.9,23.4,10.6,94,84,63,30.15,29.90,8,1,8,0.05
2012-2-1,47.9,40.3,32.9,40.8,35.2,28.3,93,82,61,29.92,29.75,19,3,19,0.10
2012-2-2,34.9,24.9,13.9,28.4,21.0,10.0,90,85,76,30.19,29.91,15,4,15,0.00
2012-2-3,27.5,20.1,9.9,23.4,13.8,7.6,92,77,56,30.32,30.16,14,2,14,0.00
2012-2-4,27.6,21.1,6.3,24.2,15.5,4.0,92,80,55,30.17,30.06,17,3,17,0.00
2012-2-5,24.2,14.2,1.5,15.5,8.0,-1.2,90,77,57,30.09,29.97,14,1,14,0.00
2012-2-6,42.4,31.8,22.2,26.8,21.7,15.5,85,67,48,29.97,29.80,17,3,17,0.00
2012-2-7,34.0,24.6,8.5,26.4,18.8,6.2,91,79,67,30.17,29.84,10,2,13,0.00
2012-2-8,31.4,18.0,2.1,15.6,6.9,-0.6,90,65,29,30.19,29.98,8,1,10,0.00
2012-2-9,36.9,26.6,13.6,20.5,16.4,10.3,87,66,48,30.03,29.94,15,2,15,0.00
2012-2-10,38.5,27.3,14.8,20.8,17.6,12.2,90,68,44,30.03,29.82,12,1,12,0.00
2012-2-11,28.9,20.2,3.2,22.5,14.5,-0.3,88,79,65,29.83,29.61,13,2,13,0.00
2012-2-12,9.6,4.6,0.7,0.7,-2.9,-5.5,85,71,56,29.75,29.60,18,5,18,0.00
2012-2-13,34.2,21.4,5.9,19.8,13.4,-1.0,90,72,45,29.89,29.68,24,4,24,0.00
2012-2-14,34.0,26.3,16.2,25.4,18.2,13.0,90,73,46,30.01,29.89,10,1,10,0.00
2012-2-15,37.3,32.1,27.1,30.0,27.1,24.3,90,82,62,30.20,30.01,8,1,8,0.00
2012-2-16,37.8,32.3,27.8,31.0,27.4,23.5,94,82,65,30.21,29.91,12,2,12,0.00
2012-2-17,38.2,33.1,28.5,33.0,26.4,19.0,96,77,55,29.91,29.84,19,3,19,0.08
2012-2-18,36.2,28.9,25.0,25.5,22.0,18.8,92,76,59,29.94,29.79,15,3,15,0.00
2012-2-19,30.7,22.6,13.8,22.5,16.5,11.4,92,78,59,30.03,29.94,12,2,12,0.00
2012-2-20,28.7,20.2,10.3,14.0,11.6,7.8,92,71,49,30.23,29.96,20,3,20,0.00
2012-2-21,37.0,24.6,9.3,28.2,16.3,7.0,92,73,42,30.26,29.75,18,3,18,0.00
2012-2-22,43.9,36.6,29.8,33.0,29.2,23.4,95,77,45,29.75,29.44,23,2,23,0.06
2012-2-23,41.5,33.3,23.8,35.3,28.4,20.5,96,83,63,29.75,29.36,19,3,19,0.08
2012-2-24,32.2,28.0,23.4,30.8,24.7,20.5,96,87,74,29.74,29.21,26,4,26,0.00
2012-2-25,32.7,25.8,16.3,31.0,20.9,10.6,95,82,70,29.81,29.17,30,6,30,0.00
2012-2-26,28.0,17.5,8.5,10.6,3.9,-1.4,78,57,28,30.32,29.81,19,4,19,0.00
2012-2-27,40.3,25.3,6.8,27.4,16.0,2.8,90,69,51,30.33,29.97,24,3,24,0.01
2012-2-28,33.2,25.9,15.4,25.1,18.2,11.4,91,73,55,30.30,30.00,27,4,27,0.00
2012-2-29,25.8,22.5,15.2,22.3,18.7,12.3,90,85,73,30.29,29.84,21,4,21,0.00
2012-3-1,25.1,22.7,18.8,22.5,19.3,15.4,91,86,82,29.93,29.72,30,6,30,0.00
2012-3-2,32.7,23.7,18.7,26.2,20.5,15.3,94,88,75,30.01,29.80,20,5,20,0.00
2012-3-3,46.9,34.4,24.7,38.7,25.9,17.3,94,74,33,29.80,29.32,29,7,29,0.06
2012-3-4,36.6,28.3,19.3,25.2,19.5,13.9,93,70,50,29.59,29.50,17,3,17,0.00
2012-3-5,25.7,13.9,3.0,14.5,7.8,-0.3,90,77,49,30.23,29.58,17,3,17,0.00
2012-3-6,30.9,14.1,-5.3,13.7,2.0,-8.8,88,63,27,30.44,30.23,11,1,11,0.00
2012-3-7,58.2,38.0,16.9,30.1,21.3,10.5,86,56,25,30.40,30.15,14,2,14,0.01
2012-3-8,64.1,50.9,34.0,49.3,40.1,27.9,94,69,42,30.16,29.65,23,4,23,0.45
2012-3-9,34.9,28.3,22.7,32.2,23.4,18.0,95,83,53,30.07,29.77,19,3,19,0.09
2012-3-10,30.0,22.2,17.0,20.7,17.6,14.2,93,83,56,30.39,30.06,15,2,15,0.00
2012-3-11,50.9,32.3,14.6,30.1,22.0,12.5,93,70,41,30.36,30.21,14,2,14,0.10
2012-3-12,60.7,42.0,28.0,36.9,31.3,26.5,95,70,34,30.24,30.07,11,2,11,0.00
2012-3-13,62.4,49.6,36.0,51.7,41.0,32.9,91,73,57,30.08,29.88,16,2,16,0.00
2012-3-14,48.9,39.3,29.7,36.6,33.0,28.3,96,79,57,30.20,29.97,15,2,15,0.00
2012-3-15,48.1,37.9,27.7,38.6,34.1,26.5,96,86,68,30.28,30.20,15,3,15,0.01
2012-3-16,42.3,38.2,33.2,41.5,37.1,32.2,97,96,93,30.23,30.05,16,2,16,0.06
2012-3-17,58.1,42.8,33.3,44.1,38.4,32.0,97,86,53,30.32,30.18,8,1,8,0.01
2012-3-18,73.0,51.5,33.2,50.6,41.6,31.9,96,74,35,30.28,30.14,14,2,14,0.00
2012-3-19,73.0,56.1,41.8,56.0,47.1,39.0,94,74,44,30.25,30.14,10,1,10,0.00
2012-3-20,75.3,57.9,43.8,54.4,47.8,41.4,94,72,41,30.31,30.23,12,2,12,0.00
2012-3-21,76.7,58.3,44.0,54.2,47.8,42.7,96,72,37,30.35,30.23,13,2,13,0.00
2012-3-22,75.0,59.2,43.6,56.3,50.1,42.4,96,75,43,30.26,30.08,14,2,14,0.00
2012-3-23,62.7,52.8,36.4,51.4,39.5,25.7,96,66,27,30.18,30.07,18,2,18,0.00
2012-3-24,51.9,43.6,34.4,35.4,24.5,9.6,82,51,19,30.13,29.99,10,1,10,0.00
2012-3-25,45.3,40.4,37.2,42.2,37.9,33.1,96,91,75,30.00,29.72,12,1,12,0.23
2012-3-26,44.1,30.0,20.8,42.5,19.8,1.8,95,67,43,30.02,29.63,28,7,28,0.00
2012-3-27,34.4,23.8,14.6,13.3,1.9,-13.6,58,41,12,30.19,30.02,22,5,22,0.00
2012-3-28,42.4,34.4,26.3,38.8,23.6,7.7,96,67,36,30.09,29.55,16,2,16,0.02
2012-3-29,40.7,33.0,28.8,38.2,29.9,25.4,95,88,77,29.91,29.56,22,4,22,0.07
2012-3-30,39.1,30.6,24.0,25.6,15.9,9.4,89,57,30,30.02,29.90,17,4,17,0.00
2012-3-31,40.9,32.1,24.8,30.4,22.3,11.1,92,68,42,29.99,29.85,10,1,10,0.00
2012-4-1,41.1,31.7,22.0,33.6,27.7,20.5,96,86,58,29.87,29.63,9,0,9,0.09
2012-4-2,43.1,34.9,29.6,31.4,22.7,9.0,96,66,29,29.82,29.62,24,4,24,0.05
2012-4-3,47.7,35.2,24.2,24.7,13.1,7.7,63,42,24,29.86,29.73,27,4,27,0.00
2012-4-4,49.9,37.3,24.5,32.1,24.6,16.8,93,63,33,29.74,29.52,20,3,20,0.02
2012-4-5,37.6,31.3,28.2,29.4,24.2,19.6,92,76,57,29.87,29.67,18,4,18,0.00
2012-4-6,42.4,32.1,23.6,22.0,19.2,14.5,88,61,33,29.99,29.86,20,3,20,0.00
2012-4-7,45.9,34.4,22.1,24.2,20.0,15.7,81,57,37,30.01,29.95,23,3,23,0.00
2012-4-8,48.9,38.3,31.0,27.6,24.9,21.1,73,59,41,29.97,29.57,15,3,15,0.00
2012-4-9,41.9,36.4,32.4,34.2,32.1,26.8,94,85,55,29.58,29.48,17,2,17,0.45
2012-4-10,43.7,38.2,33.4,37.1,31.6,28.4,92,77,62,29.74,29.55,18,3,18,0.07
2012-4-11,46.4,38.2,30.3,35.0,30.8,27.8,92,75,56,29.90,29.73,15,2,15,0.01
2012-4-12,48.4,38.5,28.6,36.5,31.1,26.4,96,76,45,30.09,29.90,16,2,16,0.02
2012-4-13,57.7,42.3,26.1,34.8,25.5,18.9,95,58,26,30.14,30.03,18,2,18,0.00
2012-4-14,62.1,46.1,27.7,35.0,26.5,20.9,88,52,23,30.14,29.98,18,2,18,0.00
2012-4-15,66.5,54.8,41.3,54.7,46.8,33.8,91,75,59,30.01,29.94,17,2,17,0.00
2012-4-16,84.2,68.6,53.6,60.5,52.4,39.8,96,63,21,30.00,29.87,20,2,20,0.01
2012-4-17,69.5,58.7,41.8,55.2,38.4,23.6,76,48,27,30.19,29.89,20,4,20,0.00
2012-4-18,50.6,39.4,27.1,31.9,28.1,23.7,89,66,44,30.25,30.08,11,2,11,0.00
2012-4-19,66.0,47.4,27.4,39.8,32.1,25.6,94,62,26,30.09,29.95,13,2,13,0.00
2012-4-20,75.5,59.4,40.3,49.2,42.6,37.2,90,58,27,29.98,29.83,20,3,20,0.00
2012-4-21,69.3,52.6,36.5,54.1,46.3,35.3,96,81,56,29.84,29.70,14,2,14,1.32
2012-4-22,36.8,34.4,31.3,35.8,33.3,30.3,97,96,94,29.86,29.68,16,2,16,0.69
2012-4-23,56.2,46.1,35.8,53.2,43.3,34.5,95,90,81,29.68,29.27,32,7,32,0.52
2012-4-24,45.9,39.9,32.3,40.1,33.4,26.9,93,79,49,29.64,29.30,24,4,24,0.13
2012-4-25,46.7,37.6,28.2,36.2,30.5,26.6,96,77,48,29.87,29.64,20,2,20,0.01
2012-4-26,57.8,43.2,26.0,44.4,32.9,24.5,95,70,33,29.89,29.56,16,2,16,0.19
2012-4-27,45.7,35.0,27.8,44.4,30.4,21.3,95,84,69,30.00,29.56,22,5,22,0.28
2012-4-28,46.4,34.2,25.1,24.2,18.4,9.2,80,57,23,30.09,29.99,23,5,23,0.00
2012-4-29,46.2,36.5,25.2,22.3,16.1,8.7,82,47,23,30.20,30.03,25,4,25,0.00
2012-4-30,56.9,43.5,26.4,35.1,20.7,10.2,70,42,20,30.30,30.11,12,2,12,0.00
2012-5-1,49.2,40.9,38.9,40.6,37.9,29.0,96,90,46,30.13,30.03,16,5,16,0.42
2012-5-2,48.9,43.8,39.0,44.7,41.6,38.0,96,92,85,30.17,30.10,16,5,16,0.00
2012-5-3,53.3,46.7,42.4,49.3,45.0,41.3,96,94,85,30.15,30.04,18,4,18,0.17
2012-5-4,68.8,55.7,47.1,61.4,53.5,46.1,97,93,77,30.08,29.90,11,1,11,0.26
2012-5-5,58.2,48.4,37.3,52.2,45.0,36.1,97,89,66,30.11,29.93,11,2,11,0.01
2012-5-6,61.4,49.2,33.5,46.1,36.7,27.5,96,66,32,30.12,30.06,13,2,13,0.00
2012-5-7,68.8,54.1,30.4,47.9,33.0,26.8,91,50,23,30.13,30.01,14,2,14,0.00
2012-5-8,57.6,49.5,44.2,51.7,47.3,42.0,97,92,70,30.03,29.82,15,3,15,1.66
2012-5-9,62.0,56.2,51.4,59.0,54.2,49.8,97,93,83,29.83,29.63,8,1,8,0.07
2012-5-10,53.7,47.3,39.6,49.9,44.6,38.3,97,91,76,29.70,29.48,14,2,14,0.34
2012-5-11,59.1,46.1,34.9,41.3,36.0,29.0,96,72,34,30.05,29.70,20,3,20,0.08
2012-5-12,74.4,54.4,31.1,44.8,37.3,29.8,96,59,30,30.16,30.05,17,2,17,0.00
2012-5-13,74.7,60.8,47.2,56.3,48.8,43.4,96,68,40,30.17,30.09,18,2,18,0.00
2012-5-14,63.7,55.7,47.2,58.4,53.3,46.1,97,92,80,30.17,30.11,11,1,11,0.59
2012-5-15,58.4,56.3,54.7,56.0,54.9,53.6,97,95,91,30.13,29.98,14,2,14,0.71
2012-5-16,75.0,59.9,53.9,63.2,55.8,44.6,98,88,40,29.99,29.80,20,2,20,0.11
2012-5-17,60.1,48.7,36.7,50.5,38.0,33.6,94,69,39,30.17,29.93,18,3,18,0.00
2012-5-18,68.7,52.1,32.8,47.1,37.9,31.8,96,64,29,30.25,30.16,11,1,11,0.00
2012-5-19,78.3,60.6,41.0,52.7,45.9,39.1,95,64,33,30.22,30.14,12,1,12,0.00
2012-5-20,81.3,67.5,49.2,58.0,51.2,47.6,96,60,35,30.29,30.20,16,3,16,0.00
2012-5-21,73.2,64.2,53.9,60.0,51.9,37.5,95,66,40,30.28,30.06,20,5,20,0.02
2012-5-22,67.5,62.2,58.6,61.2,58.7,57.2,96,89,75,30.06,29.88,13,3,13,0.00
2012-5-23,72.0,61.5,53.7,62.5,58.4,52.6,97,90,69,30.08,29.89,9,1,9,0.01
2012-5-24,71.0,62.6,51.9,63.4,58.9,51.1,97,88,72,30.22,30.08,18,4,18,0.07
2012-5-25,71.0,64.3,59.7,65.2,61.1,58.0,96,90,78,30.23,30.09,14,3,14,0.18
2012-5-26,78.0,67.5,53.0,64.6,56.7,45.3,97,72,34,30.17,30.09,14,2,14,0.00
2012-5-27,76.1,63.7,46.9,59.2,52.6,45.8,97,70,45,30.22,30.04,13,1,13,0.00
2012-5-28,82.0,68.3,52.5,65.4,56.9,46.8,93,68,47,30.05,29.89,10,1,10,0.04
2012-5-29,81.8,72.0,62.5,71.2,67.4,61.0,96,86,69,29.90,29.69,20,3,20,1.17
2012-5-30,73.8,63.2,55.4,62.5,58.6,54.3,97,86,54,29.79,29.74,5,1,0,0.13
2012-5-31,69.5,61.3,46.1,55.0,49.0,42.7,97,66,45,30.01,29.78,16,2,16,0.01
2012-6-1,65.3,55.9,41.2,50.2,45.3,39.6,95,69,52,30.08,29.96,21,5,21,0.00
2012-6-2,55.2,50.3,44.4,51.4,46.3,37.0,97,87,53,29.96,29.76,34,7,34,0.69
2012-6-3,67.2,54.7,47.8,54.7,50.0,45.2,97,85,55,29.77,29.67,17,2,17,0.38
2012-6-4,51.2,47.8,45.5,47.5,44.7,42.8,94,89,82,29.86,29.68,21,3,21,0.25
2012-6-5,60.1,50.1,42.4,50.5,45.6,41.1,97,85,64,29.95,29.84,14,1,14,0.01
2012-6-6,63.3,52.1,42.3,55.2,47.9,41.5,97,87,64,30.00,29.95,13,1,13,0.12
2012-6-7,67.3,54.7,44.5,55.1,48.8,43.6,97,82,50,30.00,29.93,13,1,13,0.01
2012-6-8,73.0,57.7,43.7,59.1,51.2,42.8,97,80,56,29.96,29.78,17,1,17,0.17
2012-6-9,70.8,57.9,42.2,58.4,50.8,41.3,97,80,51,30.02,29.86,13,1,13,0.01
2012-6-10,79.3,63.9,47.6,61.0,53.6,46.8,97,73,43,30.20,30.01,9,1,9,0.00
2012-6-11,74.3,64.9,54.7,60.7,56.8,52.8,97,76,57,30.25,30.17,19,3,19,0.00
2012-6-12,72.8,61.0,50.6,63.1,56.6,49.5,97,86,65,30.18,29.94,14,2,14,0.59
2012-6-13,70.4,61.7,49.3,61.4,56.6,47.8,97,85,62,30.15,29.89,10,2,16,0.29
2012-6-14,72.8,61.3,46.3,52.9,48.2,41.0,96,64,33,30.30,30.15,14,2,14,0.00
2012-6-15,75.5,62.0,45.7,54.1,46.7,42.4,93,60,33,30.36,30.28,12,2,12,0.00
2012-6-16,77.3,63.1,45.9,59.2,51.9,44.7,96,70,45,30.36,30.23,13,2,13,0.00
2012-6-17,72.9,62.3,50.9,59.5,53.7,46.1,95,75,56,30.26,30.07,16,4,16,0.00
2012-6-18,68.3,59.3,52.2,57.2,53.2,49.9,95,81,64,30.13,30.08,15,3,15,0.00
2012-6-19,76.5,63.2,49.1,67.3,59.0,48.1,97,87,71,30.14,30.04,9,1,9,0.00
2012-6-20,86.8,75.6,62.4,76.3,69.2,61.1,97,82,61,30.09,29.98,14,2,14,0.00
2012-6-21,88.0,75.4,62.6,72.6,67.0,61.4,97,77,53,29.99,29.83,13,1,13,0.00
2012-6-22,82.8,70.9,56.8,68.3,62.5,53.8,96,76,52,29.88,29.81,15,2,15,0.00
2012-6-23,74.8,62.4,52.8,63.5,57.7,51.7,97,85,65,30.01,29.87,15,2,15,0.00
2012-6-24,77.0,63.1,48.0,59.0,52.5,45.8,97,72,36,30.02,29.91,15,1,15,0.00
2012-6-25,69.5,59.4,52.7,60.8,56.0,51.4,97,89,61,29.91,29.69,12,1,12,0.45
2012-6-26,56.8,51.9,47.8,54.8,50.7,46.7,97,96,93,29.73,29.66,15,2,15,0.36
2012-6-27,63.7,55.7,52.1,57.5,53.8,51.3,97,93,78,29.81,29.62,15,2,15,0.20
2012-6-28,79.5,64.2,50.4,61.8,56.1,49.6,98,78,46,29.82,29.74,9,1,9,0.01
2012-6-29,83.0,69.1,55.4,70.9,59.7,48.8,97,76,35,29.77,29.63,21,2,21,0.09
2012-6-30,81.9,68.7,52.7,62.7,57.9,51.3,96,71,46,29.81,29.71,16,2,16,0.00
2012-7-1,82.0,68.0,56.4,65.4,60.2,55.0,97,79,46,29.92,29.79,12,1,12,0.19
2012-7-2,76.7,65.7,56.6,62.9,58.9,55.6,98,80,55,29.97,29.91,15,2,15,0.01
2012-7-3,77.5,64.4,50.1,62.7,55.3,49.3,97,75,44,30.00,29.86,15,1,15,0.00
2012-7-4,82.4,69.8,59.1,71.7,64.7,56.6,97,85,62,29.87,29.75,13,1,13,0.25
2012-7-5,74.2,65.2,55.4,63.8,60.4,54.3,98,85,66,29.95,29.78,13,2,13,0.00
2012-7-6,82.3,67.3,50.6,68.5,60.0,49.8,97,80,53,29.98,29.89,10,1,10,0.00
2012-7-7,75.5,67.7,59.1,68.5,64.8,58.2,97,91,76,29.91,29.83,8,0,8,0.02
2012-7-8,74.8,64.8,51.9,63.9,57.0,49.8,98,78,47,29.95,29.86,16,2,16,0.01
2012-7-9,72.0,59.7,45.8,58.0,49.1,44.1,97,71,44,30.05,29.94,17,2,17,0.00
2012-7-10,75.3,60.9,44.2,57.3,50.2,42.8,96,71,42,30.14,30.04,13,1,13,0.00
2012-7-11,83.0,66.0,49.6,62.7,52.3,46.3,97,67,33,30.22,30.14,9,1,9,0.00
2012-7-12,84.8,69.6,52.3,63.6,56.7,49.3,96,68,35,30.23,30.14,13,1,13,0.00
2012-7-13,85.8,71.1,56.3,69.0,59.3,53.8,96,71,39,30.24,30.16,13,1,13,0.00
2012-7-14,86.1,70.9,61.1,69.5,62.7,55.9,96,78,36,30.23,30.13,8,1,8,0.00
2012-7-15,81.6,70.2,59.3,70.4,65.2,58.2,97,85,61,30.17,29.93,8,1,8,0.69
2012-7-16,79.4,70.1,62.8,71.3,66.9,61.8,97,90,69,29.94,29.84,12,1,12,0.01
2012-7-17,87.7,71.9,61.5,71.2,66.4,60.6,98,85,54,29.88,29.70,20,1,20,0.54
2012-7-18,78.5,70.4,57.5,68.3,64.0,51.8,97,81,59,30.00,29.78,11,2,11,0.02
2012-7-19,71.8,61.5,47.5,57.2,51.8,46.4,97,73,52,30.08,29.98,13,2,13,0.00
2012-7-20,74.9,63.8,53.8,59.2,52.2,47.5,95,67,49,30.12,30.05,14,2,14,0.00
2012-7-21,78.8,64.2,49.6,61.7,53.9,48.8,97,73,40,30.14,30.07,10,1,10,0.00
2012-7-22,82.3,68.0,53.8,64.3,58.3,51.8,95,74,46,30.16,30.08,14,1,14,0.00
2012-7-23,82.8,71.0,58.9,71.0,64.7,57.6,97,82,59,30.10,29.78,13,1,13,0.24
2012-7-24,76.8,66.6,53.2,69.8,62.3,51.1,97,87,59,29.82,29.67,21,2,21,0.89
2012-7-25,72.8,61.9,51.7,60.6,54.1,50.3,96,77,48,29.94,29.82,18,2,18,0.00
2012-7-26,68.0,62.7,57.4,65.8,60.8,55.2,97,94,83,29.84,29.65,8,0,8,0.63
2012-7-27,72.0,65.4,60.8,67.3,63.8,59.9,98,95,83,29.97,29.68,7,0,7,0.13
2012-7-28,75.3,65.0,56.3,67.5,62.4,55.7,98,92,72,30.03,29.96,13,1,13,0.15
2012-7-29,73.0,65.0,58.6,66.4,62.0,57.8,97,90,74,30.10,30.00,9,1,9,0.43
2012-7-30,80.7,67.2,56.1,69.9,61.9,55.3,98,85,50,30.13,30.08,10,1,10,0.03
2012-7-31,78.7,68.0,57.0,65.8,59.1,54.0,98,76,45,30.11,29.96,20,2,20,0.01
2012-8-1,80.0,66.9,56.1,68.1,62.0,55.3,98,86,63,29.97,29.86,13,1,13,0.50
2012-8-2,81.5,69.5,59.1,69.2,63.9,57.7,98,84,53,29.95,29.88,14,1,14,0.01
2012-8-3,83.5,70.5,58.6,72.3,64.9,57.5,97,84,60,30.15,29.94,12,1,12,0.00
2012-8-4,86.3,70.3,59.8,74.5,65.5,58.9,98,86,58,30.26,30.15,12,2,12,0.26
2012-8-5,83.0,72.0,61.2,74.4,68.0,60.3,98,88,65,30.22,29.91,49,2,49,0.58
2012-8-6,72.3,64.4,53.3,65.8,59.0,52.4,98,84,61,30.04,29.96,11,1,11,0.00
2012-8-7,77.8,63.4,49.6,62.4,55.2,49.1,98,78,43,30.05,29.98,11,1,11,0.01
2012-8-8,83.5,67.7,53.2,65.5,57.4,52.1,98,74,38,30.04,29.98,9,1,9,0.00
2012-8-9,84.0,68.1,57.8,70.5,63.8,56.7,98,87,57,30.01,29.89,16,1,16,0.54
2012-8-10,74.5,67.3,63.2,69.6,65.1,62.6,98,93,80,29.94,29.86,14,2,14,0.07
2012-8-11,72.5,66.5,58.4,68.6,64.5,57.8,98,93,84,29.94,29.87,16,3,16,0.04
2012-8-12,78.8,68.1,58.8,67.7,62.8,57.8,98,85,58,29.96,29.90,12,1,12,0.00
2012-8-13,76.0,64.4,56.2,65.4,60.4,55.5,98,88,64,30.00,29.94,11,1,11,0.00
2012-8-14,75.3,65.3,55.4,65.0,60.4,54.8,98,85,53,30.00,29.93,7,0,7,0.01
2012-8-15,77.5,66.9,60.1,65.9,61.9,58.7,97,85,63,29.94,29.87,10,1,10,0.00
2012-8-16,75.2,64.3,55.6,62.8,59.3,54.8,98,85,58,29.94,29.88,15,2,15,0.00
2012-8-17,79.3,65.0,53.6,67.1,60.0,52.7,98,86,61,29.90,29.80,15,1,15,0.56
2012-8-18,69.7,61.2,47.6,59.6,53.8,46.7,98,79,47,29.96,29.87,12,1,12,0.00
2012-8-19,71.8,57.3,43.2,57.3,49.1,42.6,98,78,41,30.02,29.93,8,1,8,0.01
2012-8-20,76.9,61.4,46.6,60.0,51.5,45.8,98,74,38,29.96,29.87,9,1,9,0.00
2012-8-21,73.5,62.1,51.5,58.0,54.3,49.8,97,78,46,30.12,29.93,11,1,11,0.00
2012-8-22,76.2,61.2,47.0,59.1,52.0,46.2,97,76,43,30.17,30.11,10,1,10,0.00
2012-8-23,78.6,65.0,52.4,62.4,56.9,51.6,97,78,48,30.17,30.12,12,1,12,0.00
2012-8-24,80.7,64.0,52.8,64.2,57.6,52.0,98,82,51,30.24,30.16,8,0,8,0.01
2012-8-25,80.8,64.6,55.5,68.4,60.7,54.7,98,89,54,30.32,30.23,17,1,17,1.78
2012-8-26,81.8,71.7,57.9,67.4,62.2,56.9,98,74,51,30.34,30.22,9,1,9,0.02
2012-8-27,79.0,65.4,53.3,68.3,61.2,52.4,98,87,57,30.22,29.93,10,1,10,0.19
2012-8-28,72.7,64.7,50.6,68.1,61.9,49.4,98,91,74,29.95,29.82,12,1,12,0.22
2012-8-29,68.0,54.5,41.5,53.5,47.9,40.9,98,81,52,30.02,29.95,13,1,13,0.01
2012-8-30,73.3,59.8,44.0,59.6,52.4,43.2,98,78,58,30.06,29.99,15,2,15,0.01
2012-8-31,79.2,69.3,53.5,65.7,58.5,51.3,96,70,52,30.01,29.84,17,2,17,0.02
2012-9-1,74.9,64.5,55.0,65.5,59.1,53.6,98,85,52,30.11,29.92,11,1,11,0.00
2012-9-2,74.0,63.4,50.4,60.3,54.0,47.4,97,75,41,30.15,30.08,11,2,11,0.00
2012-9-3,77.3,62.7,48.8,59.6,54.3,47.9,98,77,48,30.20,30.11,12,2,12,0.00
2012-9-4,66.5,61.9,55.3,64.0,59.6,53.7,96,92,78,30.13,29.83,14,3,14,0.81
2012-9-5,70.6,64.0,56.7,67.5,62.6,56.1,98,95,81,29.91,29.70,14,2,14,0.26
2012-9-6,78.7,64.4,53.4,67.5,60.4,52.8,99,88,61,29.93,29.85,10,1,10,0.04
2012-9-7,78.5,65.8,56.1,66.1,59.4,54.1,98,83,45,29.99,29.88,8,0,8,0.00
2012-9-8,77.3,65.8,56.0,68.6,62.2,54.6,98,89,65,29.90,29.56,25,3,25,0.80
2012-9-9,66.2,56.3,45.4,54.9,51.3,44.6,98,85,62,29.91,29.74,13,2,13,0.00
2012-9-10,58.4,50.1,41.5,50.2,44.6,40.7,98,83,58,30.10,29.91,18,2,18,0.00
2012-9-11,64.3,50.0,36.3,49.3,43.5,35.4,97,81,48,30.26,30.09,11,1,11,0.00
2012-9-12,75.8,58.0,43.6,58.1,50.3,42.8,97,79,46,30.34,30.26,6,1,9,0.01
2012-9-13,77.8,61.5,48.8,62.2,54.4,48.0,98,80,47,30.35,30.26,10,1,10,0.01
2012-9-14,78.8,63.7,52.2,64.8,57.8,51.4,98,83,55,30.27,30.06,13,1,13,0.01
2012-9-15,61.1,54.7,44.3,56.6,48.7,43.0,97,81,61,30.09,30.00,17,2,17,0.01
2012-9-16,60.6,48.4,40.3,46.4,42.0,36.8,98,81,48,30.09,30.01,15,2,15,0.00
2012-9-17,73.7,54.3,38.5,58.3,48.2,37.7,98,82,47,30.08,30.01,11,1,11,0.01
2012-9-18,66.0,58.0,47.5,65.0,56.5,46.7,98,95,80,30.03,29.62,25,4,25,2.08
2012-9-19,62.0,51.0,37.0,61.4,44.7,36.1,98,81,45,30.19,29.66,19,2,19,0.05
2012-9-20,61.7,47.5,34.4,46.0,40.5,33.6,97,79,53,30.24,30.11,17,2,17,0.00
2012-9-21,65.5,54.8,43.1,53.4,48.9,42.0,97,82,57,30.13,30.03,16,4,16,0.00
2012-9-22,66.8,57.0,47.6,58.9,53.1,46.1,97,87,72,30.04,29.81,14,3,14,0.52
2012-9-23,58.4,48.8,35.8,53.9,44.6,34.8,97,86,60,30.08,29.83,15,2,15,0.02
2012-9-24,54.9,42.4,32.4,45.7,37.6,31.6,98,85,56,30.11,30.04,11,1,11,0.01
2012-9-25,66.0,48.9,34.5,46.6,40.4,33.7,98,77,37,30.10,30.05,14,1,14,0.01
2012-9-26,60.5,54.5,44.5,56.9,52.4,43.2,97,93,86,30.08,29.99,12,1,12,0.01
2012-9-27,58.6,50.3,37.9,57.1,44.6,35.9,98,82,55,30.23,30.02,16,2,16,0.04
2012-9-28,48.3,44.0,36.0,47.2,42.6,34.7,97,95,82,30.23,30.00,18,3,18,0.53
2012-9-29,54.1,49.7,47.3,51.5,48.3,45.9,98,95,87,30.00,29.89,10,1,10,0.09
2012-9-30,53.3,49.4,43.7,51.7,48.5,42.9,98,97,91,29.91,29.66,12,0,12,0.08
2012-10-1,54.6,50.8,47.0,52.5,49.3,46.2,98,95,90,29.94,29.63,16,2,16,0.51
2012-10-2,61.4,55.0,48.1,56.8,52.5,47.6,98,92,74,30.06,29.93,5,0,5,0.05
2012-10-3,63.0,59.3,56.1,61.2,58.3,55.5,98,97,93,30.15,30.04,11,1,11,0.21
2012-10-4,63.6,60.6,56.7,62.3,59.8,55.8,98,97,94,30.16,30.04,8,0,8,0.11
2012-10-5,71.6,59.8,50.2,58.5,54.7,49.6,98,85,52,30.05,29.91,12,1,12,0.01
2012-10-6,65.4,54.0,40.8,58.6,51.6,38.4,98,92,73,29.92,29.72,11,2,11,0.25
2012-10-7,50.2,41.7,33.0,40.6,37.9,32.2,98,87,63,30.04,29.92,10,1,10,0.20
2012-10-8,50.5,41.6,34.3,41.9,37.6,32.8,97,87,53,30.26,30.03,10,1,10,0.06
2012-10-9,48.9,42.9,32.4,44.5,40.6,31.6,98,92,81,30.26,30.10,17,3,17,0.01
2012-10-10,51.7,46.3,41.9,50.6,44.8,38.1,97,94,86,30.10,29.74,19,4,19,0.24
2012-10-11,48.0,40.9,34.3,38.8,35.2,32.3,93,81,59,30.06,29.81,19,3,19,0.01
2012-10-12,46.3,37.2,24.8,37.9,30.3,22.3,96,77,57,30.31,29.94,20,3,20,0.17
2012-10-13,44.5,33.8,20.8,31.3,24.7,19.3,95,72,45,30.38,30.20,12,1,12,0.00
2012-10-14,54.8,45.5,35.5,53.8,44.0,30.9,98,94,76,30.21,29.87,10,2,10,0.47
2012-10-15,66.0,56.6,46.0,57.6,52.8,45.0,98,87,72,29.86,29.63,19,2,19,0.01
2012-10-16,51.3,40.5,29.2,47.5,35.8,27.6,95,83,69,29.88,29.62,18,3,18,0.04
2012-10-17,56.7,39.4,26.9,40.3,33.0,25.9,97,81,40,29.98,29.87,7,0,7,0.00
2012-10-18,60.9,49.5,34.6,44.1,39.8,33.6,97,72,48,30.06,29.98,20,4,20,0.00
2012-10-19,59.9,53.1,48.1,58.8,51.5,44.1,98,94,86,30.06,29.73,31,7,31,1.32
2012-10-20,66.6,56.8,43.4,59.1,51.5,39.8,97,84,43,29.74,29.63,26,2,26,0.00
2012-10-21,51.7,44.9,36.3,44.2,41.1,35.2,97,87,69,29.89,29.74,19,2,19,0.08
2012-10-22,57.7,48.7,39.6,43.3,41.0,36.9,91,76,55,30.02,29.88,19,3,19,0.00
2012-10-23,52.4,41.4,33.2,45.4,38.6,32.3,97,90,74,30.13,30.02,8,1,8,0.00
2012-10-24,56.9,44.6,34.8,40.3,34.1,28.5,97,69,39,30.20,30.11,8,1,8,0.00
2012-10-25,57.2,47.7,35.7,44.4,40.9,33.6,96,79,57,30.25,30.19,11,1,11,0.00
2012-10-26,64.7,49.8,39.3,55.0,47.1,38.5,98,91,70,30.20,30.11,6,0,6,0.00
2012-10-27,59.3,52.8,45.6,54.5,50.7,44.8,98,93,82,30.14,30.01,12,2,12,0.00
2012-10-28,56.2,51.6,46.6,51.5,43.5,34.5,95,75,55,30.02,29.85,25,4,25,0.00
2012-10-29,56.8,50.8,45.7,55.7,48.6,43.2,97,92,81,29.85,29.25,44,10,44,0.66
2012-10-30,60.4,55.4,50.8,56.0,52.3,49.1,97,90,70,29.56,29.29,41,10,41,0.79
2012-10-31,51.3,46.3,38.7,49.3,43.2,36.3,96,89,78,29.55,29.46,18,3,18,0.05
2012-11-1,40.8,39.1,37.1,38.8,36.7,34.7,95,91,86,29.53,29.49,9,1,9,0.06
2012-11-2,40.2,37.9,35.0,36.9,34.4,31.6,94,87,78,29.65,29.52,15,2,15,0.00
2012-11-3,38.3,35.3,33.9,33.2,31.8,30.1,95,87,80,29.83,29.65,13,3,13,0.00
2012-11-4,35.4,32.7,29.0,31.7,29.4,23.0,95,88,78,29.95,29.83,13,3,13,0.00
2012-11-5,31.9,28.0,24.9,23.5,19.7,14.9,83,71,60,30.07,29.93,16,3,16,0.00
2012-11-6,35.7,24.8,15.5,19.4,16.2,13.6,94,71,44,30.15,30.07,16,1,16,0.00
2012-11-7,30.0,26.5,21.1,21.2,16.6,13.6,79,66,57,30.13,29.87,16,2,16,0.00
2012-11-8,33.4,29.1,26.2,28.1,23.9,17.2,95,81,60,29.87,29.79,16,3,16,0.00
2012-11-9,40.7,32.9,22.3,32.6,25.5,20.4,94,75,51,30.08,29.86,18,3,18,0.01
2012-11-10,43.5,35.4,27.4,33.0,29.0,22.6,95,78,47,30.37,30.07,14,2,14,0.00
2012-11-11,64.1,46.9,39.1,43.7,35.7,22.0,94,67,42,30.39,30.32,13,2,13,0.00
2012-11-12,68.0,52.7,38.0,51.1,43.0,35.3,94,73,38,30.37,30.10,22,3,22,0.00
2012-11-13,60.2,37.5,24.6,53.1,34.4,23.3,96,89,75,30.40,30.05,22,3,22,0.46
2012-11-14,38.7,28.7,22.0,25.9,22.0,19.3,95,77,52,30.50,30.40,13,1,13,0.05
2012-11-15,38.1,27.0,19.2,25.8,21.8,17.4,94,81,60,30.42,30.25,9,0,9,0.01
2012-11-16,34.7,23.9,17.0,28.9,21.5,15.3,95,91,74,30.41,30.25,9,0,9,0.00
2012-11-17,38.2,26.6,18.9,31.6,23.2,17.5,95,88,66,30.61,30.41,9,1,9,0.02
2012-11-18,43.0,28.3,17.5,27.5,22.1,16.1,95,80,49,30.63,30.53,10,1,10,0.01
2012-11-19,47.0,29.7,20.6,33.2,25.0,19.0,95,84,51,30.53,30.22,6,0,6,0.00
2012-11-20,46.2,31.8,22.8,32.0,25.1,21.3,95,79,44,30.22,30.10,10,0,10,0.01
2012-11-21,47.9,33.9,25.3,30.4,24.6,20.2,91,72,34,30.22,30.13,9,1,9,0.00
2012-11-22,53.9,34.9,24.4,32.2,25.3,22.2,94,73,31,30.22,30.06,7,1,7,0.00
2012-11-23,58.2,42.6,27.1,38.9,30.4,24.4,95,67,29,30.06,29.58,16,2,16,0.00
2012-11-24,44.7,30.8,23.5,39.0,22.0,15.9,87,70,55,29.61,29.52,23,4,23,0.00
2012-11-25,29.4,25.0,21.0,21.4,15.5,8.0,87,68,44,29.77,29.60,24,5,24,0.00
2012-11-26,34.1,28.5,24.8,26.1,22.5,19.3,91,79,61,30.15,29.76,22,2,22,0.00
2012-11-27,33.6,27.6,23.1,23.9,22.1,20.6,92,80,64,30.21,30.14,11,1,11,0.00
2012-11-28,31.5,27.2,24.9,24.7,22.1,19.5,91,81,62,30.16,30.04,12,1,12,0.00
2012-11-29,35.7,28.9,22.7,27.6,21.2,15.5,91,73,51,30.16,30.03,23,4,23,0.00
2012-11-30,23.4,18.6,12.3,20.9,6.8,-3.3,90,62,33,30.43,30.16,8,2,12,0.00
2012-12-1,32.0,23.0,16.6,30.6,19.2,6.5,95,86,62,30.48,30.36,18,5,18,0.00
2012-12-2,46.3,40.7,32.0,44.8,38.2,30.5,97,91,77,30.37,29.96,17,3,17,0.32
2012-12-3,46.1,39.5,29.6,44.8,37.7,28.3,97,93,87,30.23,29.96,15,2,15,0.00
2012-12-4,51.4,42.6,28.5,49.7,41.2,27.8,98,95,87,30.23,29.87,15,3,15,0.09
2012-12-5,51.4,35.2,21.6,50.2,31.1,15.7,97,85,73,30.12,29.84,24,5,24,0.35
2012-12-6,29.9,22.3,18.1,19.6,16.9,14.8,92,80,63,30.28,30.12,19,3,19,0.00
2012-12-7,33.6,29.6,22.3,31.6,22.7,13.5,96,76,53,30.15,29.98,9,1,9,0.00
2012-12-8,44.9,36.7,31.5,43.0,35.5,30.2,98,95,92,29.99,29.80,18,2,18,0.12
2012-12-9,41.9,34.5,31.1,40.0,29.2,23.3,93,81,68,30.22,29.93,19,3,19,0.00
2012-12-10,48.9,40.3,31.6,48.3,39.0,29.0,98,95,90,30.05,29.50,26,5,26,1.04
2012-12-11,35.6,29.3,24.2,34.3,27.0,20.1,97,91,84,30.09,29.59,13,3,13,0.03
2012-12-12,32.6,25.2,16.3,25.1,21.1,14.6,95,85,69,30.32,30.09,12,1,12,0.00
2012-12-13,34.9,24.8,17.3,28.0,21.2,15.9,96,87,62,30.37,30.19,8,0,8,0.00
2012-12-14,35.9,29.2,18.8,28.4,23.9,17.4,96,81,59,30.19,30.04,16,2,16,0.00
2012-12-15,31.7,24.3,16.5,27.4,19.0,8.6,92,81,59,30.29,30.13,9,2,9,0.00
2012-12-16,25.1,22.8,21.4,22.8,18.0,7.5,93,82,49,30.27,30.05,23,7,23,0.00
2012-12-17,34.2,27.8,23.1,32.7,26.0,21.4,95,93,90,30.06,29.78,23,6,23,0.00
2012-12-18,39.1,35.6,33.4,37.6,34.2,31.8,97,95,92,29.78,29.42,31,5,31,0.96
2012-12-19,34.0,30.8,28.9,33.2,29.8,27.4,97,96,94,30.07,29.46,13,3,13,0.00
2012-12-20,32.0,27.9,22.9,28.5,26.0,21.9,97,93,87,30.20,29.91,22,3,22,0.00
2012-12-21,43.1,33.1,28.0,42.6,31.9,26.6,98,95,89,29.92,28.93,36,11,42,0.35
2012-12-22,31.3,23.4,17.3,28.5,20.6,12.5,94,89,81,29.65,29.10,22,5,22,0.00
2012-12-23,28.7,22.8,15.8,23.9,17.5,11.2,89,80,67,29.81,29.65,19,3,19,0.00
2012-12-24,27.0,21.1,14.8,24.4,15.8,11.7,93,80,66,30.04,29.80,20,3,20,0.00
2012-12-25,25.6,16.4,3.7,21.2,14.2,1.4,93,91,82,30.30,29.98,10,1,10,0.00
2012-12-26,29.2,15.8,0.6,21.2,9.5,-2.1,91,77,52,30.37,29.88,41,3,41,0.00
2012-12-27,28.9,23.1,17.3,27.5,21.3,15.6,95,93,88,29.89,29.50,38,6,38,0.00
2012-12-28,24.2,20.4,16.0,22.5,18.8,14.1,94,94,92,30.03,29.73,0,0,0,0.00
2012-12-29,25.3,21.4,17.7,23.8,19.9,16.3,95,94,92,30.02,29.53,0,0,0,0.00
2012-12-30,18.5,12.6,7.2,16.8,10.0,4.0,93,89,84,30.06,29.53,0,0,0,0.00
2012-12-31,26.2,19.5,9.3,24.1,16.8,6.0,94,89,84,30.06,29.71,0,0,0,0.00
2013-1-1,26.5,16.4,2.3,25.2,11.5,-1.2,95,81,70,29.91,29.69,23,4,23,0.00